sensor_id;sensor_type;location;lat;lon;timestamp;P1;durP1;ratioP1;P2;durP2;ratioP2
8458;SDS011;4266;48.816;9.154;2023-10-13T00:01:59;11.73;;;5.43;;
8458;SDS011;4266;48.816;9.154;2023-10-13T00:04:25;13.55;;;5.87;;
8458;SDS011;4266;48.816;9.154;2023-10-13T00:06:51;12.50;;;5.50;;
8458;SDS011;4266;48.816;9.154;2023-10-13T00:09:17;6.72;;;4.60;;
8458;SDS011;4266;48.816;9.154;2023-10-13T00:11:43;7.70;;;4.87;;
8458;SDS011;4266;48.816;9.154;2023-10-13T00:14:11;24.83;;;5.55;;
8458;SDS011;4266;48.816;9.154;2023-10-13T00:16:36;13.18;;;5.95;;
8458;SDS011;4266;48.816;9.154;2023-10-13T00:19:01;11.48;;;5.20;;
8458;SDS011;4266;48.816;9.154;2023-10-13T00:21:27;10.88;;;5.28;;
8458;SDS011;4266;48.816;9.154;2023-10-13T00:23:56;12.98;;;5.62;;
8458;SDS011;4266;48.816;9.154;2023-10-13T00:26:23;11.65;;;5.62;;
8458;SDS011;4266;48.816;9.154;2023-10-13T00:28:49;7.20;;;5.15;;
8458;SDS011;4266;48.816;9.154;2023-10-13T00:31:15;9.60;;;5.07;;
8458;SDS011;4266;48.816;9.154;2023-10-13T00:33:40;9.93;;;5.25;;
8458;SDS011;4266;48.816;9.154;2023-10-13T00:36:07;9.40;;;4.87;;
8458;SDS011;4266;48.816;9.154;2023-10-13T00:38:33;7.97;;;5.10;;
8458;SDS011;4266;48.816;9.154;2023-10-13T00:40:59;16.52;;;5.30;;
8458;SDS011;4266;48.816;9.154;2023-10-13T00:43:31;10.98;;;5.25;;
8458;SDS011;4266;48.816;9.154;2023-10-13T00:45:57;11.20;;;5.10;;
8458;SDS011;4266;48.816;9.154;2023-10-13T00:48:23;7.50;;;5.28;;
8458;SDS011;4266;48.816;9.154;2023-10-13T00:51:00;9.88;;;5.20;;
8458;SDS011;4266;48.816;9.154;2023-10-13T00:53:25;5.65;;;4.82;;
8458;SDS011;4266;48.816;9.154;2023-10-13T00:55:51;11.18;;;5.18;;
8458;SDS011;4266;48.816;9.154;2023-10-13T00:58:17;6.60;;;4.75;;
8458;SDS011;4266;48.816;9.154;2023-10-13T01:00:43;10.73;;;5.20;;
8458;SDS011;4266;48.816;9.154;2023-10-13T01:03:13;9.90;;;4.80;;
8458;SDS011;4266;48.816;9.154;2023-10-13T01:05:39;10.18;;;5.03;;
8458;SDS011;4266;48.816;9.154;2023-10-13T01:08:04;6.62;;;4.25;;
8458;SDS011;4266;48.816;9.154;2023-10-13T01:10:30;8.45;;;4.78;;
8458;SDS011;4266;48.816;9.154;2023-10-13T01:12:57;7.40;;;5.00;;
8458;SDS011;4266;48.816;9.154;2023-10-13T01:15:22;13.05;;;5.22;;
8458;SDS011;4266;48.816;9.154;2023-10-13T01:17:48;8.57;;;4.87;;
8458;SDS011;4266;48.816;9.154;2023-10-13T01:20:14;6.72;;;5.12;;
8458;SDS011;4266;48.816;9.154;2023-10-13T01:22:46;11.05;;;5.10;;
8458;SDS011;4266;48.816;9.154;2023-10-13T01:25:11;10.73;;;4.80;;
8458;SDS011;4266;48.816;9.154;2023-10-13T01:27:37;9.18;;;4.65;;
8458;SDS011;4266;48.816;9.154;2023-10-13T01:30:04;11.68;;;5.20;;
8458;SDS011;4266;48.816;9.154;2023-10-13T01:32:31;8.73;;;5.10;;
8458;SDS011;4266;48.816;9.154;2023-10-13T01:34:58;11.77;;;4.70;;
8458;SDS011;4266;48.816;9.154;2023-10-13T01:37:24;14.95;;;5.20;;
8458;SDS011;4266;48.816;9.154;2023-10-13T01:39:50;13.52;;;5.07;;
8458;SDS011;4266;48.816;9.154;2023-10-13T01:42:16;9.77;;;5.32;;
8458;SDS011;4266;48.816;9.154;2023-10-13T01:44:45;8.02;;;5.00;;
8458;SDS011;4266;48.816;9.154;2023-10-13T01:47:11;9.63;;;4.95;;
8458;SDS011;4266;48.816;9.154;2023-10-13T01:49:37;6.30;;;4.70;;
8458;SDS011;4266;48.816;9.154;2023-10-13T01:52:03;6.68;;;4.68;;
8458;SDS011;4266;48.816;9.154;2023-10-13T01:54:30;6.60;;;4.70;;
8458;SDS011;4266;48.816;9.154;2023-10-13T01:56:56;10.82;;;4.57;;
8458;SDS011;4266;48.816;9.154;2023-10-13T01:59:21;8.35;;;4.97;;
8458;SDS011;4266;48.816;9.154;2023-10-13T02:01:47;9.95;;;5.15;;
8458;SDS011;4266;48.816;9.154;2023-10-13T02:04:13;13.75;;;5.30;;
8458;SDS011;4266;48.816;9.154;2023-10-13T02:06:38;12.48;;;5.22;;
8458;SDS011;4266;48.816;9.154;2023-10-13T02:09:06;9.77;;;5.22;;
8458;SDS011;4266;48.816;9.154;2023-10-13T02:11:45;9.52;;;4.72;;
8458;SDS011;4266;48.816;9.154;2023-10-13T02:14:11;6.20;;;4.77;;
8458;SDS011;4266;48.816;9.154;2023-10-13T02:16:37;9.50;;;5.25;;
8458;SDS011;4266;48.816;9.154;2023-10-13T02:19:03;9.30;;;4.95;;
8458;SDS011;4266;48.816;9.154;2023-10-13T02:21:30;12.07;;;5.20;;
8458;SDS011;4266;48.816;9.154;2023-10-13T02:23:56;9.32;;;5.28;;
8458;SDS011;4266;48.816;9.154;2023-10-13T02:26:25;13.70;;;4.95;;
8458;SDS011;4266;48.816;9.154;2023-10-13T02:28:57;5.40;;;4.37;;
8458;SDS011;4266;48.816;9.154;2023-10-13T02:31:23;6.93;;;4.90;;
8458;SDS011;4266;48.816;9.154;2023-10-13T02:33:50;12.02;;;5.05;;
8458;SDS011;4266;48.816;9.154;2023-10-13T02:36:15;10.02;;;5.45;;
8458;SDS011;4266;48.816;9.154;2023-10-13T02:38:41;13.10;;;6.43;;
8458;SDS011;4266;48.816;9.154;2023-10-13T02:41:10;11.32;;;5.45;;
8458;SDS011;4266;48.816;9.154;2023-10-13T02:43:35;8.48;;;5.35;;
8458;SDS011;4266;48.816;9.154;2023-10-13T02:46:01;10.02;;;5.45;;
8458;SDS011;4266;48.816;9.154;2023-10-13T02:48:27;14.73;;;5.40;;
8458;SDS011;4266;48.816;9.154;2023-10-13T02:50:55;11.73;;;5.20;;
8458;SDS011;4266;48.816;9.154;2023-10-13T02:53:20;7.85;;;5.05;;
8458;SDS011;4266;48.816;9.154;2023-10-13T02:55:50;14.63;;;5.20;;
8458;SDS011;4266;48.816;9.154;2023-10-13T02:58:14;13.27;;;4.97;;
8458;SDS011;4266;48.816;9.154;2023-10-13T03:00:40;12.75;;;5.45;;
8458;SDS011;4266;48.816;9.154;2023-10-13T03:03:05;9.80;;;5.17;;
8458;SDS011;4266;48.816;9.154;2023-10-13T03:05:34;9.73;;;5.30;;
8458;SDS011;4266;48.816;9.154;2023-10-13T03:07:57;12.00;;;5.37;;
8458;SDS011;4266;48.816;9.154;2023-10-13T03:10:22;13.63;;;5.87;;
8458;SDS011;4266;48.816;9.154;2023-10-13T03:12:49;10.48;;;5.55;;
8458;SDS011;4266;48.816;9.154;2023-10-13T03:15:15;18.27;;;10.73;;
8458;SDS011;4266;48.816;9.154;2023-10-13T03:17:44;26.37;;;14.05;;
8458;SDS011;4266;48.816;9.154;2023-10-13T03:20:10;18.37;;;9.20;;
8458;SDS011;4266;48.816;9.154;2023-10-13T03:22:36;15.40;;;7.03;;
8458;SDS011;4266;48.816;9.154;2023-10-13T03:25:02;10.60;;;5.43;;
8458;SDS011;4266;48.816;9.154;2023-10-13T03:27:29;11.03;;;5.23;;
8458;SDS011;4266;48.816;9.154;2023-10-13T03:29:55;10.20;;;5.22;;
8458;SDS011;4266;48.816;9.154;2023-10-13T03:32:22;9.10;;;5.20;;
8458;SDS011;4266;48.816;9.154;2023-10-13T03:34:48;8.20;;;5.30;;
8458;SDS011;4266;48.816;9.154;2023-10-13T03:37:19;11.07;;;4.87;;
8458;SDS011;4266;48.816;9.154;2023-10-13T03:39:44;16.70;;;5.30;;
8458;SDS011;4266;48.816;9.154;2023-10-13T03:42:10;9.63;;;5.22;;
8458;SDS011;4266;48.816;9.154;2023-10-13T03:44:36;8.10;;;4.80;;
8458;SDS011;4266;48.816;9.154;2023-10-13T03:47:02;6.73;;;5.37;;
8458;SDS011;4266;48.816;9.154;2023-10-13T03:49:29;11.65;;;5.37;;
8458;SDS011;4266;48.816;9.154;2023-10-13T03:51:54;15.00;;;5.00;;
8458;SDS011;4266;48.816;9.154;2023-10-13T03:54:20;8.87;;;5.20;;
8458;SDS011;4266;48.816;9.154;2023-10-13T03:56:46;9.48;;;5.12;;
8458;SDS011;4266;48.816;9.154;2023-10-13T03:59:12;10.90;;;5.70;;
8458;SDS011;4266;48.816;9.154;2023-10-13T04:01:44;10.97;;;4.87;;
8458;SDS011;4266;48.816;9.154;2023-10-13T04:04:13;22.30;;;5.40;;
8458;SDS011;4266;48.816;9.154;2023-10-13T04:06:39;8.93;;;5.37;;
8458;SDS011;4266;48.816;9.154;2023-10-13T04:09:16;7.73;;;5.63;;
8458;SDS011;4266;48.816;9.154;2023-10-13T04:11:47;5.87;;;5.28;;
8458;SDS011;4266;48.816;9.154;2023-10-13T04:14:14;11.23;;;5.37;;
8458;SDS011;4266;48.816;9.154;2023-10-13T04:16:45;8.20;;;5.10;;
8458;SDS011;4266;48.816;9.154;2023-10-13T04:19:16;11.23;;;5.20;;
8458;SDS011;4266;48.816;9.154;2023-10-13T04:21:45;9.00;;;4.97;;
8458;SDS011;4266;48.816;9.154;2023-10-13T04:24:16;13.93;;;5.60;;
8458;SDS011;4266;48.816;9.154;2023-10-13T04:26:52;10.20;;;5.40;;
8458;SDS011;4266;48.816;9.154;2023-10-13T04:29:24;9.48;;;5.65;;
8458;SDS011;4266;48.816;9.154;2023-10-13T04:31:56;13.17;;;6.00;;
8458;SDS011;4266;48.816;9.154;2023-10-13T04:34:21;19.85;;;5.78;;
8458;SDS011;4266;48.816;9.154;2023-10-13T04:36:47;9.90;;;5.20;;
8458;SDS011;4266;48.816;9.154;2023-10-13T04:39:12;11.73;;;5.55;;
8458;SDS011;4266;48.816;9.154;2023-10-13T04:41:38;11.77;;;5.27;;
8458;SDS011;4266;48.816;9.154;2023-10-13T04:44:05;12.30;;;5.50;;
8458;SDS011;4266;48.816;9.154;2023-10-13T04:46:37;11.00;;;5.20;;
8458;SDS011;4266;48.816;9.154;2023-10-13T04:49:19;12.80;;;5.50;;
8458;SDS011;4266;48.816;9.154;2023-10-13T04:51:51;8.03;;;5.30;;
8458;SDS011;4266;48.816;9.154;2023-10-13T04:54:17;12.57;;;5.40;;
8458;SDS011;4266;48.816;9.154;2023-10-13T04:56:44;9.57;;;5.00;;
8458;SDS011;4266;48.816;9.154;2023-10-13T04:59:15;8.10;;;5.30;;
8458;SDS011;4266;48.816;9.154;2023-10-13T05:01:43;7.60;;;5.40;;
8458;SDS011;4266;48.816;9.154;2023-10-13T05:04:15;7.97;;;5.07;;
8458;SDS011;4266;48.816;9.154;2023-10-13T05:06:47;13.47;;;5.93;;
8458;SDS011;4266;48.816;9.154;2023-10-13T05:09:29;7.73;;;5.30;;
8458;SDS011;4266;48.816;9.154;2023-10-13T05:12:01;11.73;;;5.50;;
8458;SDS011;4266;48.816;9.154;2023-10-13T05:14:34;8.93;;;5.13;;
8458;SDS011;4266;48.816;9.154;2023-10-13T05:17:06;12.07;;;5.23;;
8458;SDS011;4266;48.816;9.154;2023-10-13T05:19:38;8.73;;;4.93;;
8458;SDS011;4266;48.816;9.154;2023-10-13T05:22:10;8.00;;;5.10;;
8458;SDS011;4266;48.816;9.154;2023-10-13T05:24:43;11.23;;;5.50;;
8458;SDS011;4266;48.816;9.154;2023-10-13T05:27:14;11.67;;;5.87;;
8458;SDS011;4266;48.816;9.154;2023-10-13T05:29:46;10.57;;;5.70;;
8458;SDS011;4266;48.816;9.154;2023-10-13T05:32:18;11.83;;;5.70;;
8458;SDS011;4266;48.816;9.154;2023-10-13T05:34:51;16.27;;;5.20;;
8458;SDS011;4266;48.816;9.154;2023-10-13T05:37:23;6.40;;;4.90;;
8458;SDS011;4266;48.816;9.154;2023-10-13T05:39:55;9.50;;;5.47;;
8458;SDS011;4266;48.816;9.154;2023-10-13T05:42:27;9.00;;;5.17;;
8458;SDS011;4266;48.816;9.154;2023-10-13T05:45:00;7.90;;;5.50;;
8458;SDS011;4266;48.816;9.154;2023-10-13T05:47:45;7.47;;;5.23;;
8458;SDS011;4266;48.816;9.154;2023-10-13T05:50:12;15.93;;;5.70;;
8458;SDS011;4266;48.816;9.154;2023-10-13T05:52:38;13.00;;;5.20;;
8458;SDS011;4266;48.816;9.154;2023-10-13T05:55:09;6.40;;;5.30;;
8458;SDS011;4266;48.816;9.154;2023-10-13T05:57:41;14.33;;;5.33;;
8458;SDS011;4266;48.816;9.154;2023-10-13T06:00:14;13.23;;;5.70;;
8458;SDS011;4266;48.816;9.154;2023-10-13T06:02:47;9.00;;;5.10;;
8458;SDS011;4266;48.816;9.154;2023-10-13T06:05:20;11.27;;;5.80;;
8458;SDS011;4266;48.816;9.154;2023-10-13T06:07:51;15.52;;;5.43;;
8458;SDS011;4266;48.816;9.154;2023-10-13T06:10:24;10.00;;;5.85;;
8458;SDS011;4266;48.816;9.154;2023-10-13T06:12:56;11.65;;;5.32;;
8458;SDS011;4266;48.816;9.154;2023-10-13T06:15:28;10.70;;;6.10;;
8458;SDS011;4266;48.816;9.154;2023-10-13T06:18:00;14.68;;;6.00;;
8458;SDS011;4266;48.816;9.154;2023-10-13T06:20:32;12.00;;;5.60;;
8458;SDS011;4266;48.816;9.154;2023-10-13T06:23:05;11.35;;;5.57;;
8458;SDS011;4266;48.816;9.154;2023-10-13T06:25:37;6.97;;;5.00;;
8458;SDS011;4266;48.816;9.154;2023-10-13T06:28:09;9.70;;;5.10;;
8458;SDS011;4266;48.816;9.154;2023-10-13T06:30:41;10.13;;;5.97;;
8458;SDS011;4266;48.816;9.154;2023-10-13T06:33:06;14.10;;;6.30;;
8458;SDS011;4266;48.816;9.154;2023-10-13T06:35:32;16.30;;;6.12;;
8458;SDS011;4266;48.816;9.154;2023-10-13T06:37:58;19.12;;;6.45;;
8458;SDS011;4266;48.816;9.154;2023-10-13T06:40:23;12.73;;;5.97;;
8458;SDS011;4266;48.816;9.154;2023-10-13T06:42:52;18.42;;;6.45;;
8458;SDS011;4266;48.816;9.154;2023-10-13T06:45:17;13.02;;;6.10;;
8458;SDS011;4266;48.816;9.154;2023-10-13T06:47:43;16.08;;;6.03;;
8458;SDS011;4266;48.816;9.154;2023-10-13T06:50:09;15.77;;;6.40;;
8458;SDS011;4266;48.816;9.154;2023-10-13T06:52:35;14.38;;;6.60;;
8458;SDS011;4266;48.816;9.154;2023-10-13T06:55:01;14.60;;;7.90;;
8458;SDS011;4266;48.816;9.154;2023-10-13T06:57:27;13.32;;;7.25;;
8458;SDS011;4266;48.816;9.154;2023-10-13T06:59:53;25.58;;;8.02;;
8458;SDS011;4266;48.816;9.154;2023-10-13T07:02:19;14.57;;;7.30;;
8458;SDS011;4266;48.816;9.154;2023-10-13T07:04:45;20.37;;;7.70;;
8458;SDS011;4266;48.816;9.154;2023-10-13T07:07:12;14.13;;;7.90;;
8458;SDS011;4266;48.816;9.154;2023-10-13T07:09:38;12.93;;;6.97;;
8458;SDS011;4266;48.816;9.154;2023-10-13T07:12:05;20.55;;;7.43;;
8458;SDS011;4266;48.816;9.154;2023-10-13T07:14:33;18.70;;;7.70;;
8458;SDS011;4266;48.816;9.154;2023-10-13T07:17:00;16.17;;;7.07;;
8458;SDS011;4266;48.816;9.154;2023-10-13T07:19:26;14.13;;;6.75;;
8458;SDS011;4266;48.816;9.154;2023-10-13T07:21:52;14.85;;;6.50;;
8458;SDS011;4266;48.816;9.154;2023-10-13T07:24:18;13.80;;;6.68;;
8458;SDS011;4266;48.816;9.154;2023-10-13T07:26:43;14.07;;;6.20;;
8458;SDS011;4266;48.816;9.154;2023-10-13T07:29:09;12.30;;;6.10;;
8458;SDS011;4266;48.816;9.154;2023-10-13T07:31:35;9.73;;;5.65;;
8458;SDS011;4266;48.816;9.154;2023-10-13T07:34:01;11.23;;;6.20;;
8458;SDS011;4266;48.816;9.154;2023-10-13T07:36:29;13.07;;;6.18;;
8458;SDS011;4266;48.816;9.154;2023-10-13T07:38:54;10.73;;;5.85;;
8458;SDS011;4266;48.816;9.154;2023-10-13T07:41:25;10.30;;;6.22;;
8458;SDS011;4266;48.816;9.154;2023-10-13T07:43:51;13.95;;;6.12;;
8458;SDS011;4266;48.816;9.154;2023-10-13T07:46:17;11.32;;;6.20;;
8458;SDS011;4266;48.816;9.154;2023-10-13T07:48:43;13.40;;;5.85;;
8458;SDS011;4266;48.816;9.154;2023-10-13T07:51:10;11.90;;;5.85;;
8458;SDS011;4266;48.816;9.154;2023-10-13T07:53:39;17.73;;;5.90;;
8458;SDS011;4266;48.816;9.154;2023-10-13T07:56:03;10.48;;;5.90;;
8458;SDS011;4266;48.816;9.154;2023-10-13T07:58:29;16.75;;;6.05;;
8458;SDS011;4266;48.816;9.154;2023-10-13T08:00:55;9.60;;;5.37;;
8458;SDS011;4266;48.816;9.154;2023-10-13T08:03:20;10.00;;;5.28;;
8458;SDS011;4266;48.816;9.154;2023-10-13T08:06:01;10.05;;;5.43;;
8458;SDS011;4266;48.816;9.154;2023-10-13T08:08:31;9.40;;;4.78;;
8458;SDS011;4266;48.816;9.154;2023-10-13T08:11:01;13.00;;;5.00;;
8458;SDS011;4266;48.816;9.154;2023-10-13T08:13:26;7.87;;;4.80;;
8458;SDS011;4266;48.816;9.154;2023-10-13T08:15:51;11.65;;;5.10;;
8458;SDS011;4266;48.816;9.154;2023-10-13T08:18:17;14.90;;;5.40;;
8458;SDS011;4266;48.816;9.154;2023-10-13T08:20:44;10.80;;;5.30;;
8458;SDS011;4266;48.816;9.154;2023-10-13T08:23:09;15.48;;;5.37;;
8458;SDS011;4266;48.816;9.154;2023-10-13T08:25:40;14.50;;;5.35;;
8458;SDS011;4266;48.816;9.154;2023-10-13T08:28:13;10.45;;;5.43;;
8458;SDS011;4266;48.816;9.154;2023-10-13T08:30:45;11.90;;;4.85;;
8458;SDS011;4266;48.816;9.154;2023-10-13T08:33:17;11.18;;;5.25;;
8458;SDS011;4266;48.816;9.154;2023-10-13T08:35:44;12.95;;;5.90;;
8458;SDS011;4266;48.816;9.154;2023-10-13T08:38:11;12.77;;;5.43;;
8458;SDS011;4266;48.816;9.154;2023-10-13T08:40:42;17.05;;;5.65;;
8458;SDS011;4266;48.816;9.154;2023-10-13T08:43:10;7.50;;;4.87;;
8458;SDS011;4266;48.816;9.154;2023-10-13T08:45:36;14.55;;;4.65;;
8458;SDS011;4266;48.816;9.154;2023-10-13T08:48:16;11.07;;;5.30;;
8458;SDS011;4266;48.816;9.154;2023-10-13T08:50:43;9.60;;;5.10;;
8458;SDS011;4266;48.816;9.154;2023-10-13T08:56:01;9.82;;;5.10;;
8458;SDS011;4266;48.816;9.154;2023-10-13T08:58:28;12.23;;;4.53;;
8458;SDS011;4266;48.816;9.154;2023-10-13T09:00:54;10.38;;;5.30;;
8458;SDS011;4266;48.816;9.154;2023-10-13T09:03:21;9.35;;;5.28;;
8458;SDS011;4266;48.816;9.154;2023-10-13T09:05:52;9.23;;;5.05;;
8458;SDS011;4266;48.816;9.154;2023-10-13T09:08:25;13.23;;;5.03;;
8458;SDS011;4266;48.816;9.154;2023-10-13T09:10:50;10.40;;;5.32;;
8458;SDS011;4266;48.816;9.154;2023-10-13T09:13:16;9.40;;;4.80;;
8458;SDS011;4266;48.816;9.154;2023-10-13T09:15:45;12.43;;;5.10;;
8458;SDS011;4266;48.816;9.154;2023-10-13T09:18:23;11.02;;;4.80;;
8458;SDS011;4266;48.816;9.154;2023-10-13T09:20:48;16.23;;;5.10;;
8458;SDS011;4266;48.816;9.154;2023-10-13T09:23:14;10.32;;;4.72;;
8458;SDS011;4266;48.816;9.154;2023-10-13T09:25:51;8.27;;;4.78;;
8458;SDS011;4266;48.816;9.154;2023-10-13T09:28:19;7.80;;;4.30;;
8458;SDS011;4266;48.816;9.154;2023-10-13T09:30:45;15.35;;;5.15;;
8458;SDS011;4266;48.816;9.154;2023-10-13T09:33:11;11.80;;;4.65;;
8458;SDS011;4266;48.816;9.154;2023-10-13T09:35:43;11.15;;;4.50;;
8458;SDS011;4266;48.816;9.154;2023-10-13T09:38:08;9.63;;;4.78;;
8458;SDS011;4266;48.816;9.154;2023-10-13T09:40:34;10.90;;;4.37;;
8458;SDS011;4266;48.816;9.154;2023-10-13T09:43:00;7.87;;;4.45;;
8458;SDS011;4266;48.816;9.154;2023-10-13T09:45:27;10.38;;;4.30;;
8458;SDS011;4266;48.816;9.154;2023-10-13T09:47:51;9.32;;;4.82;;
8458;SDS011;4266;48.816;9.154;2023-10-13T09:50:17;10.38;;;4.57;;
8458;SDS011;4266;48.816;9.154;2023-10-13T09:52:43;11.82;;;5.00;;
8458;SDS011;4266;48.816;9.154;2023-10-13T09:55:11;7.87;;;4.45;;
8458;SDS011;4266;48.816;9.154;2023-10-13T09:57:37;6.50;;;4.62;;
8458;SDS011;4266;48.816;9.154;2023-10-13T10:00:12;12.60;;;4.95;;
8458;SDS011;4266;48.816;9.154;2023-10-13T10:02:39;15.32;;;5.35;;
8458;SDS011;4266;48.816;9.154;2023-10-13T10:05:05;13.57;;;5.15;;
8458;SDS011;4266;48.816;9.154;2023-10-13T10:07:36;10.82;;;4.87;;
8458;SDS011;4266;48.816;9.154;2023-10-13T10:10:02;10.07;;;4.97;;
8458;SDS011;4266;48.816;9.154;2023-10-13T10:12:32;6.90;;;4.75;;
8458;SDS011;4266;48.816;9.154;2023-10-13T10:15:06;8.02;;;4.22;;
8458;SDS011;4266;48.816;9.154;2023-10-13T10:17:38;10.38;;;4.43;;
8458;SDS011;4266;48.816;9.154;2023-10-13T10:20:09;16.20;;;4.87;;
8458;SDS011;4266;48.816;9.154;2023-10-13T10:22:41;11.50;;;4.97;;
8458;SDS011;4266;48.816;9.154;2023-10-13T10:25:06;13.20;;;4.50;;
8458;SDS011;4266;48.816;9.154;2023-10-13T10:27:33;8.85;;;4.78;;
8458;SDS011;4266;48.816;9.154;2023-10-13T10:29:59;6.37;;;4.37;;
8458;SDS011;4266;48.816;9.154;2023-10-13T10:32:31;8.40;;;4.30;;
8458;SDS011;4266;48.816;9.154;2023-10-13T10:37:32;17.25;;;4.82;;
8458;SDS011;4266;48.816;9.154;2023-10-13T10:39:56;12.48;;;4.45;;
8458;SDS011;4266;48.816;9.154;2023-10-13T10:42:22;7.28;;;4.45;;
8458;SDS011;4266;48.816;9.154;2023-10-13T10:44:50;11.07;;;4.40;;
8458;SDS011;4266;48.816;9.154;2023-10-13T10:47:15;12.52;;;4.90;;
8458;SDS011;4266;48.816;9.154;2023-10-13T10:49:45;11.90;;;5.25;;
8458;SDS011;4266;48.816;9.154;2023-10-13T10:52:11;10.85;;;4.97;;
8458;SDS011;4266;48.816;9.154;2023-10-13T10:54:40;7.03;;;4.50;;
8458;SDS011;4266;48.816;9.154;2023-10-13T10:57:05;10.00;;;4.35;;
8458;SDS011;4266;48.816;9.154;2023-10-13T10:59:34;13.60;;;4.80;;
8458;SDS011;4266;48.816;9.154;2023-10-13T11:02:00;10.10;;;4.75;;
8458;SDS011;4266;48.816;9.154;2023-10-13T11:04:26;9.82;;;4.90;;
8458;SDS011;4266;48.816;9.154;2023-10-13T11:06:52;10.75;;;4.35;;
8458;SDS011;4266;48.816;9.154;2023-10-13T11:09:27;9.65;;;4.72;;
8458;SDS011;4266;48.816;9.154;2023-10-13T11:11:53;14.63;;;5.25;;
8458;SDS011;4266;48.816;9.154;2023-10-13T11:14:23;11.70;;;4.87;;
8458;SDS011;4266;48.816;9.154;2023-10-13T11:16:50;15.45;;;4.93;;
8458;SDS011;4266;48.816;9.154;2023-10-13T11:19:17;18.95;;;5.35;;
8458;SDS011;4266;48.816;9.154;2023-10-13T11:21:42;8.23;;;4.40;;
8458;SDS011;4266;48.816;9.154;2023-10-13T11:24:08;16.12;;;4.93;;
8458;SDS011;4266;48.816;9.154;2023-10-13T11:26:34;13.48;;;4.65;;
8458;SDS011;4266;48.816;9.154;2023-10-13T11:29:00;7.37;;;4.28;;
8458;SDS011;4266;48.816;9.154;2023-10-13T11:31:26;15.05;;;4.90;;
8458;SDS011;4266;48.816;9.154;2023-10-13T11:33:52;8.73;;;4.40;;
8458;SDS011;4266;48.816;9.154;2023-10-13T11:36:17;16.05;;;5.10;;
8458;SDS011;4266;48.816;9.154;2023-10-13T11:38:43;10.50;;;4.40;;
8458;SDS011;4266;48.816;9.154;2023-10-13T11:41:10;7.55;;;4.25;;
8458;SDS011;4266;48.816;9.154;2023-10-13T11:43:39;11.90;;;4.82;;
8458;SDS011;4266;48.816;9.154;2023-10-13T11:46:23;11.23;;;4.78;;
8458;SDS011;4266;48.816;9.154;2023-10-13T11:48:54;9.15;;;4.22;;
8458;SDS011;4266;48.816;9.154;2023-10-13T11:51:20;10.45;;;4.55;;
8458;SDS011;4266;48.816;9.154;2023-10-13T11:53:50;9.20;;;4.75;;
8458;SDS011;4266;48.816;9.154;2023-10-13T11:56:18;14.87;;;4.57;;
8458;SDS011;4266;48.816;9.154;2023-10-13T11:58:44;7.82;;;4.28;;
8458;SDS011;4266;48.816;9.154;2023-10-13T12:01:10;6.70;;;4.37;;
8458;SDS011;4266;48.816;9.154;2023-10-13T12:03:47;8.77;;;4.60;;
8458;SDS011;4266;48.816;9.154;2023-10-13T12:06:17;9.38;;;5.47;;
8458;SDS011;4266;48.816;9.154;2023-10-13T12:08:59;9.77;;;4.65;;
8458;SDS011;4266;48.816;9.154;2023-10-13T12:11:25;9.45;;;4.65;;
8458;SDS011;4266;48.816;9.154;2023-10-13T12:13:56;15.40;;;5.15;;
8458;SDS011;4266;48.816;9.154;2023-10-13T12:16:21;6.57;;;4.50;;
8458;SDS011;4266;48.816;9.154;2023-10-13T12:18:47;7.72;;;4.47;;
8458;SDS011;4266;48.816;9.154;2023-10-13T12:21:12;7.55;;;4.22;;
8458;SDS011;4266;48.816;9.154;2023-10-13T12:23:38;9.95;;;4.80;;
8458;SDS011;4266;48.816;9.154;2023-10-13T12:26:04;7.97;;;4.30;;
8458;SDS011;4266;48.816;9.154;2023-10-13T12:28:30;10.38;;;4.68;;
8458;SDS011;4266;48.816;9.154;2023-10-13T12:30:56;9.55;;;4.60;;
8458;SDS011;4266;48.816;9.154;2023-10-13T12:33:24;13.75;;;5.20;;
8458;SDS011;4266;48.816;9.154;2023-10-13T12:35:56;5.18;;;4.15;;
8458;SDS011;4266;48.816;9.154;2023-10-13T12:38:30;8.05;;;4.72;;
8458;SDS011;4266;48.816;9.154;2023-10-13T12:41:01;8.90;;;5.05;;
8458;SDS011;4266;48.816;9.154;2023-10-13T12:43:33;9.35;;;4.70;;
8458;SDS011;4266;48.816;9.154;2023-10-13T12:46:05;6.65;;;4.55;;
8458;SDS011;4266;48.816;9.154;2023-10-13T12:48:37;7.53;;;4.93;;
8458;SDS011;4266;48.816;9.154;2023-10-13T12:51:09;9.50;;;4.50;;
8458;SDS011;4266;48.816;9.154;2023-10-13T12:53:50;9.63;;;4.82;;
8458;SDS011;4266;48.816;9.154;2023-10-13T12:56:15;9.90;;;4.45;;
8458;SDS011;4266;48.816;9.154;2023-10-13T12:58:41;8.77;;;4.10;;
8458;SDS011;4266;48.816;9.154;2023-10-13T13:01:08;11.52;;;4.10;;
8458;SDS011;4266;48.816;9.154;2023-10-13T13:03:35;8.82;;;4.12;;
8458;SDS011;4266;48.816;9.154;2023-10-13T13:06:01;9.50;;;4.05;;
8458;SDS011;4266;48.816;9.154;2023-10-13T13:08:27;7.97;;;3.95;;
8458;SDS011;4266;48.816;9.154;2023-10-13T13:10:52;11.23;;;4.80;;
8458;SDS011;4266;48.816;9.154;2023-10-13T13:13:19;14.05;;;4.45;;
8458;SDS011;4266;48.816;9.154;2023-10-13T13:15:50;11.65;;;4.65;;
8458;SDS011;4266;48.816;9.154;2023-10-13T13:18:16;12.07;;;4.75;;
8458;SDS011;4266;48.816;9.154;2023-10-13T13:20:42;8.23;;;4.10;;
8458;SDS011;4266;48.816;9.154;2023-10-13T13:23:08;8.50;;;4.10;;
8458;SDS011;4266;48.816;9.154;2023-10-13T13:25:34;6.57;;;3.72;;
8458;SDS011;4266;48.816;9.154;2023-10-13T13:28:01;7.18;;;3.78;;
8458;SDS011;4266;48.816;9.154;2023-10-13T13:30:27;12.88;;;4.25;;
8458;SDS011;4266;48.816;9.154;2023-10-13T13:32:52;10.27;;;4.53;;
8458;SDS011;4266;48.816;9.154;2023-10-13T13:35:24;9.02;;;4.57;;
8458;SDS011;4266;48.816;9.154;2023-10-13T13:37:52;8.80;;;4.68;;
8458;SDS011;4266;48.816;9.154;2023-10-13T13:40:21;8.90;;;4.00;;
8458;SDS011;4266;48.816;9.154;2023-10-13T13:42:47;10.75;;;4.45;;
8458;SDS011;4266;48.816;9.154;2023-10-13T13:45:13;9.98;;;4.30;;
8458;SDS011;4266;48.816;9.154;2023-10-13T13:47:44;11.10;;;4.10;;
8458;SDS011;4266;48.816;9.154;2023-10-13T13:50:10;13.45;;;4.20;;
8458;SDS011;4266;48.816;9.154;2023-10-13T13:52:36;12.77;;;4.28;;
8458;SDS011;4266;48.816;9.154;2023-10-13T13:55:02;7.55;;;3.85;;
8458;SDS011;4266;48.816;9.154;2023-10-13T13:57:28;15.40;;;4.50;;
8458;SDS011;4266;48.816;9.154;2023-10-13T13:59:54;6.03;;;3.72;;
8458;SDS011;4266;48.816;9.154;2023-10-13T14:02:20;10.18;;;4.70;;
8458;SDS011;4266;48.816;9.154;2023-10-13T14:04:46;9.23;;;3.78;;
8458;SDS011;4266;48.816;9.154;2023-10-13T14:07:12;7.80;;;3.83;;
8458;SDS011;4266;48.816;9.154;2023-10-13T14:09:38;14.38;;;4.20;;
8458;SDS011;4266;48.816;9.154;2023-10-13T14:12:07;6.00;;;4.00;;
8458;SDS011;4266;48.816;9.154;2023-10-13T14:14:39;9.65;;;4.70;;
8458;SDS011;4266;48.816;9.154;2023-10-13T14:17:04;11.63;;;4.10;;
8458;SDS011;4266;48.816;9.154;2023-10-13T14:19:33;10.70;;;4.45;;
8458;SDS011;4266;48.816;9.154;2023-10-13T14:21:59;9.77;;;4.28;;
8458;SDS011;4266;48.816;9.154;2023-10-13T14:24:25;7.78;;;4.40;;
8458;SDS011;4266;48.816;9.154;2023-10-13T14:26:54;6.60;;;4.25;;
8458;SDS011;4266;48.816;9.154;2023-10-13T14:29:19;7.60;;;4.05;;
8458;SDS011;4266;48.816;9.154;2023-10-13T14:31:45;6.78;;;4.47;;
8458;SDS011;4266;48.816;9.154;2023-10-13T14:34:11;14.82;;;4.97;;
8458;SDS011;4266;48.816;9.154;2023-10-13T14:36:36;13.25;;;4.70;;
8458;SDS011;4266;48.816;9.154;2023-10-13T14:39:04;9.85;;;4.18;;
8458;SDS011;4266;48.816;9.154;2023-10-13T14:41:28;10.25;;;4.62;;
8458;SDS011;4266;48.816;9.154;2023-10-13T14:43:54;7.75;;;4.12;;
8458;SDS011;4266;48.816;9.154;2023-10-13T14:46:20;10.35;;;4.37;;
8458;SDS011;4266;48.816;9.154;2023-10-13T14:48:46;11.55;;;4.47;;
8458;SDS011;4266;48.816;9.154;2023-10-13T14:51:12;16.52;;;4.30;;
8458;SDS011;4266;48.816;9.154;2023-10-13T14:53:40;11.25;;;4.80;;
8458;SDS011;4266;48.816;9.154;2023-10-13T14:56:06;9.57;;;3.75;;
8458;SDS011;4266;48.816;9.154;2023-10-13T14:58:31;4.35;;;3.80;;
8458;SDS011;4266;48.816;9.154;2023-10-13T15:00:57;10.77;;;4.05;;
8458;SDS011;4266;48.816;9.154;2023-10-13T15:03:23;11.15;;;3.83;;
8458;SDS011;4266;48.816;9.154;2023-10-13T15:05:48;5.85;;;3.78;;
8458;SDS011;4266;48.816;9.154;2023-10-13T15:08:14;8.65;;;3.85;;
8458;SDS011;4266;48.816;9.154;2023-10-13T15:10:40;8.70;;;3.78;;
8458;SDS011;4266;48.816;9.154;2023-10-13T15:13:05;5.75;;;3.55;;
8458;SDS011;4266;48.816;9.154;2023-10-13T15:15:31;5.97;;;3.67;;
8458;SDS011;4266;48.816;9.154;2023-10-13T15:17:57;12.25;;;4.00;;